sensor_id;sensor_type;location;lat;lon;timestamp;pressure;altitude;pressure_sealevel;temperature;humidity
9740;BME280;4909;42.680;26.324;2023-01-23T00:01:56;99420.78;;;10.61;100.00
9740;BME280;4909;42.680;26.324;2023-01-23T00:04:23;99427.59;;;10.69;100.00
9740;BME280;4909;42.680;26.324;2023-01-23T00:06:49;99394.97;;;10.38;100.00
9740;BME280;4909;42.680;26.324;2023-01-23T00:09:16;99428.09;;;10.54;100.00
9740;BME280;4909;42.680;26.324;2023-01-23T00:11:44;99428.72;;;10.34;100.00
9740;BME280;4909;42.680;26.324;2023-01-23T00:14:11;99434.75;;;10.39;100.00
9740;BME280;4909;42.680;26.324;2023-01-23T00:16:38;99446.44;;;10.32;100.00
9740;BME280;4909;42.680;26.324;2023-01-23T00:19:04;99441.59;;;10.17;100.00
9740;BME280;4909;42.680;26.324;2023-01-23T00:21:31;99435.63;;;10.09;100.00
9740;BME280;4909;42.680;26.324;2023-01-23T00:23:59;99440.63;;;10.21;100.00
9740;BME280;4909;42.680;26.324;2023-01-23T00:26:28;99407.97;;;9.88;100.00
9740;BME280;4909;42.680;26.324;2023-01-23T00:28:58;99443.97;;;9.97;100.00
9740;BME280;4909;42.680;26.324;2023-01-23T00:31:26;99437.56;;;10.04;100.00
9740;BME280;4909;42.680;26.324;2023-01-23T00:33:56;99437.59;;;10.02;100.00
9740;BME280;4909;42.680;26.324;2023-01-23T00:36:27;99443.69;;;10.06;100.00
9740;BME280;4909;42.680;26.324;2023-01-23T00:38:54;99442.06;;;10.02;100.00
9740;BME280;4909;42.680;26.324;2023-01-23T00:41:21;99443.63;;;10.08;100.00
9740;BME280;4909;42.680;26.324;2023-01-23T00:43:48;99445.31;;;10.12;100.00
9740;BME280;4909;42.680;26.324;2023-01-23T00:46:17;99448.63;;;10.20;100.00
9740;BME280;4909;42.680;26.324;2023-01-23T00:48:44;99458.06;;;10.28;100.00
9740;BME280;4909;42.680;26.324;2023-01-23T00:51:11;99445.50;;;10.35;100.00
9740;BME280;4909;42.680;26.324;2023-01-23T00:53:38;99461.22;;;10.41;100.00
9740;BME280;4909;42.680;26.324;2023-01-23T00:56:06;99473.28;;;10.51;100.00
9740;BME280;4909;42.680;26.324;2023-01-23T00:58:33;99469.72;;;10.23;100.00
9740;BME280;4909;42.680;26.324;2023-01-23T01:01:00;99477.25;;;10.38;100.00
9740;BME280;4909;42.680;26.324;2023-01-23T01:03:28;99482.78;;;10.60;100.00
9740;BME280;4909;42.680;26.324;2023-01-23T01:05:55;99474.16;;;10.52;100.00
9740;BME280;4909;42.680;26.324;2023-01-23T01:08:22;99477.31;;;10.64;100.00
9740;BME280;4909;42.680;26.324;2023-01-23T01:10:48;99479.75;;;10.70;100.00
9740;BME280;4909;42.680;26.324;2023-01-23T01:13:15;99492.53;;;10.59;100.00
9740;BME280;4909;42.680;26.324;2023-01-23T01:15:45;99488.94;;;10.60;100.00
9740;BME280;4909;42.680;26.324;2023-01-23T01:18:13;99500.38;;;10.62;100.00
9740;BME280;4909;42.680;26.324;2023-01-23T01:20:42;99501.63;;;10.51;100.00
9740;BME280;4909;42.680;26.324;2023-01-23T01:23:10;99495.47;;;10.21;100.00
9740;BME280;4909;42.680;26.324;2023-01-23T01:25:37;99467.00;;;9.95;100.00
9740;BME280;4909;42.680;26.324;2023-01-23T01:28:04;99485.41;;;10.01;100.00
9740;BME280;4909;42.680;26.324;2023-01-23T01:30:31;99498.91;;;9.92;100.00
9740;BME280;4909;42.680;26.324;2023-01-23T01:32:58;99485.34;;;9.72;100.00
9740;BME280;4909;42.680;26.324;2023-01-23T01:35:25;99483.75;;;9.65;100.00
9740;BME280;4909;42.680;26.324;2023-01-23T01:37:53;99481.59;;;9.46;100.00
9740;BME280;4909;42.680;26.324;2023-01-23T01:40:24;99469.41;;;9.39;100.00
9740;BME280;4909;42.680;26.324;2023-01-23T01:42:54;99468.13;;;9.54;100.00
9740;BME280;4909;42.680;26.324;2023-01-23T01:48:47;99498.50;;;9.75;100.00
9740;BME280;4909;42.680;26.324;2023-01-23T01:51:22;99505.31;;;9.83;100.00
9740;BME280;4909;42.680;26.324;2023-01-23T01:53:56;99507.59;;;9.65;100.00
9740;BME280;4909;42.680;26.324;2023-01-23T01:56:24;99493.97;;;9.46;100.00
9740;BME280;4909;42.680;26.324;2023-01-23T01:58:53;99509.88;;;9.46;100.00
9740;BME280;4909;42.680;26.324;2023-01-23T02:01:20;99503.03;;;9.39;100.00
9740;BME280;4909;42.680;26.324;2023-01-23T02:03:48;99511.00;;;9.37;100.00
9740;BME280;4909;42.680;26.324;2023-01-23T02:06:16;99512.88;;;9.32;100.00
9740;BME280;4909;42.680;26.324;2023-01-23T02:08:47;99514.03;;;9.22;100.00
9740;BME280;4909;42.680;26.324;2023-01-23T02:11:18;99531.69;;;9.22;100.00
9740;BME280;4909;42.680;26.324;2023-01-23T02:13:45;99529.41;;;9.08;100.00
9740;BME280;4909;42.680;26.324;2023-01-23T02:16:14;99530.41;;;9.02;100.00
9740;BME280;4909;42.680;26.324;2023-01-23T02:18:45;99511.25;;;8.91;100.00
9740;BME280;4909;42.680;26.324;2023-01-23T02:21:14;99523.13;;;9.10;100.00
9740;BME280;4909;42.680;26.324;2023-01-23T02:24:00;99522.44;;;9.04;100.00
9740;BME280;4909;42.680;26.324;2023-01-23T02:26:33;99511.97;;;8.99;100.00
9740;BME280;4909;42.680;26.324;2023-01-23T02:29:01;99492.81;;;8.88;100.00
9740;BME280;4909;42.680;26.324;2023-01-23T02:31:29;99508.34;;;9.02;100.00
9740;BME280;4909;42.680;26.324;2023-01-23T02:33:56;99523.47;;;8.97;100.00
9740;BME280;4909;42.680;26.324;2023-01-23T02:36:26;99490.38;;;8.79;100.00
9740;BME280;4909;42.680;26.324;2023-01-23T02:38:59;99527.00;;;8.97;100.00
9740;BME280;4909;42.680;26.324;2023-01-23T02:41:30;99521.91;;;8.88;100.00
9740;BME280;4909;42.680;26.324;2023-01-23T02:44:01;99530.59;;;8.95;100.00
9740;BME280;4909;42.680;26.324;2023-01-23T02:46:28;99531.03;;;9.13;100.00
9740;BME280;4909;42.680;26.324;2023-01-23T02:48:55;99524.81;;;9.14;100.00
9740;BME280;4909;42.680;26.324;2023-01-23T02:51:22;99521.97;;;9.22;100.00
9740;BME280;4909;42.680;26.324;2023-01-23T02:53:49;99535.88;;;9.30;100.00
9740;BME280;4909;42.680;26.324;2023-01-23T02:56:16;99532.06;;;9.42;99.58
9740;BME280;4909;42.680;26.324;2023-01-23T02:58:45;99530.34;;;9.39;99.37
9740;BME280;4909;42.680;26.324;2023-01-23T03:01:30;99540.00;;;9.43;99.76
9740;BME280;4909;42.680;26.324;2023-01-23T03:04:00;99549.91;;;9.35;100.00
9740;BME280;4909;42.680;26.324;2023-01-23T03:06:30;99541.88;;;9.38;100.00
9740;BME280;4909;42.680;26.324;2023-01-23T03:09:02;99545.94;;;9.51;99.16
9740;BME280;4909;42.680;26.324;2023-01-23T03:11:30;99552.59;;;9.34;99.69
9740;BME280;4909;42.680;26.324;2023-01-23T03:13:58;99548.19;;;9.33;100.00
9740;BME280;4909;42.680;26.324;2023-01-23T03:16:25;99557.81;;;9.37;100.00
9740;BME280;4909;42.680;26.324;2023-01-23T03:18:52;99557.59;;;9.44;99.62
9740;BME280;4909;42.680;26.324;2023-01-23T03:21:22;99566.75;;;9.33;99.99
9740;BME280;4909;42.680;26.324;2023-01-23T03:23:49;99560.38;;;9.40;100.00
9740;BME280;4909;42.680;26.324;2023-01-23T03:26:15;99563.72;;;9.48;99.16
9740;BME280;4909;42.680;26.324;2023-01-23T03:28:42;99562.75;;;9.15;100.00
9740;BME280;4909;42.680;26.324;2023-01-23T03:31:28;99574.06;;;9.22;100.00
9740;BME280;4909;42.680;26.324;2023-01-23T03:33:55;99579.00;;;9.37;100.00
9740;BME280;4909;42.680;26.324;2023-01-23T03:36:21;99581.63;;;9.38;100.00
9740;BME280;4909;42.680;26.324;2023-01-23T03:38:48;99579.09;;;9.34;100.00
9740;BME280;4909;42.680;26.324;2023-01-23T03:41:32;99553.63;;;9.28;100.00
9740;BME280;4909;42.680;26.324;2023-01-23T03:43:59;99580.53;;;9.47;100.00
9740;BME280;4909;42.680;26.324;2023-01-23T03:46:27;99570.06;;;9.41;100.00
9740;BME280;4909;42.680;26.324;2023-01-23T03:48:54;99570.03;;;9.42;100.00
9740;BME280;4909;42.680;26.324;2023-01-23T03:51:21;99571.03;;;9.38;100.00
9740;BME280;4909;42.680;26.324;2023-01-23T03:53:48;99577.81;;;9.14;100.00
9740;BME280;4909;42.680;26.324;2023-01-23T03:56:14;99567.88;;;9.23;100.00
9740;BME280;4909;42.680;26.324;2023-01-23T03:58:41;99567.25;;;9.11;100.00
9740;BME280;4909;42.680;26.324;2023-01-23T04:01:08;99567.63;;;9.33;100.00
9740;BME280;4909;42.680;26.324;2023-01-23T04:03:36;99565.66;;;9.40;99.82
9740;BME280;4909;42.680;26.324;2023-01-23T04:06:03;99578.88;;;9.43;99.54
9740;BME280;4909;42.680;26.324;2023-01-23T04:08:30;99583.16;;;9.48;99.81
9740;BME280;4909;42.680;26.324;2023-01-23T04:11:01;99581.41;;;9.47;99.46
9740;BME280;4909;42.680;26.324;2023-01-23T04:13:28;99580.81;;;9.35;99.22
9740;BME280;4909;42.680;26.324;2023-01-23T04:15:55;99534.25;;;9.25;99.62
9740;BME280;4909;42.680;26.324;2023-01-23T04:18:22;99565.41;;;9.50;98.92
9740;BME280;4909;42.680;26.324;2023-01-23T04:20:50;99576.47;;;9.68;99.60
9740;BME280;4909;42.680;26.324;2023-01-23T04:23:17;99573.88;;;9.65;100.00
9740;BME280;4909;42.680;26.324;2023-01-23T04:25:43;99574.84;;;9.62;99.82
9740;BME280;4909;42.680;26.324;2023-01-23T04:28:10;99572.53;;;9.48;100.00
9740;BME280;4909;42.680;26.324;2023-01-23T04:30:37;99573.72;;;9.35;100.00
9740;BME280;4909;42.680;26.324;2023-01-23T04:33:04;99576.78;;;9.54;100.00
9740;BME280;4909;42.680;26.324;2023-01-23T04:35:31;99584.59;;;9.60;99.83
9740;BME280;4909;42.680;26.324;2023-01-23T04:37:59;99588.28;;;9.54;100.00
9740;BME280;4909;42.680;26.324;2023-01-23T04:40:26;99590.38;;;9.42;100.00
9740;BME280;4909;42.680;26.324;2023-01-23T04:42:53;99599.16;;;9.44;100.00
9740;BME280;4909;42.680;26.324;2023-01-23T04:45:20;99588.09;;;9.27;100.00
9740;BME280;4909;42.680;26.324;2023-01-23T04:47:47;99603.31;;;9.17;100.00
9740;BME280;4909;42.680;26.324;2023-01-23T04:50:14;99613.78;;;9.23;100.00
9740;BME280;4909;42.680;26.324;2023-01-23T04:52:41;99603.63;;;9.42;100.00
9740;BME280;4909;42.680;26.324;2023-01-23T04:55:09;99612.22;;;9.50;100.00
9740;BME280;4909;42.680;26.324;2023-01-23T04:57:36;99606.25;;;9.43;100.00
9740;BME280;4909;42.680;26.324;2023-01-23T05:00:03;99616.84;;;9.43;100.00
9740;BME280;4909;42.680;26.324;2023-01-23T05:02:30;99606.06;;;9.49;100.00
9740;BME280;4909;42.680;26.324;2023-01-23T05:04:57;99607.44;;;9.66;98.41
9740;BME280;4909;42.680;26.324;2023-01-23T05:07:24;99602.41;;;9.55;99.45
9740;BME280;4909;42.680;26.324;2023-01-23T05:09:51;99607.91;;;9.47;100.00
9740;BME280;4909;42.680;26.324;2023-01-23T05:12:19;99599.22;;;9.41;100.00
9740;BME280;4909;42.680;26.324;2023-01-23T05:14:45;99609.69;;;9.45;100.00
9740;BME280;4909;42.680;26.324;2023-01-23T05:17:12;99620.03;;;9.56;100.00
9740;BME280;4909;42.680;26.324;2023-01-23T05:19:39;99622.94;;;9.81;100.00
9740;BME280;4909;42.680;26.324;2023-01-23T05:22:06;99623.72;;;9.86;98.75
9740;BME280;4909;42.680;26.324;2023-01-23T05:24:33;99633.28;;;9.57;99.14
9740;BME280;4909;42.680;26.324;2023-01-23T05:26:59;99635.91;;;9.57;99.69
9740;BME280;4909;42.680;26.324;2023-01-23T05:29:27;99648.06;;;9.66;100.00
9740;BME280;4909;42.680;26.324;2023-01-23T05:31:54;99645.06;;;9.80;98.86
9740;BME280;4909;42.680;26.324;2023-01-23T05:34:21;99655.56;;;9.84;98.73
9740;BME280;4909;42.680;26.324;2023-01-23T05:36:48;99645.09;;;9.78;98.49
9740;BME280;4909;42.680;26.324;2023-01-23T05:39:15;99638.38;;;9.64;100.00
9740;BME280;4909;42.680;26.324;2023-01-23T05:41:41;99646.03;;;9.77;100.00
9740;BME280;4909;42.680;26.324;2023-01-23T05:44:08;99644.78;;;9.56;100.00
9740;BME280;4909;42.680;26.324;2023-01-23T05:46:37;99641.84;;;9.32;100.00
9740;BME280;4909;42.680;26.324;2023-01-23T05:49:03;99644.25;;;9.41;100.00
9740;BME280;4909;42.680;26.324;2023-01-23T05:51:30;99654.34;;;9.25;100.00
9740;BME280;4909;42.680;26.324;2023-01-23T05:53:58;99657.03;;;9.24;100.00
9740;BME280;4909;42.680;26.324;2023-01-23T05:56:26;99626.13;;;9.24;100.00
9740;BME280;4909;42.680;26.324;2023-01-23T05:58:53;99666.63;;;9.66;100.00
9740;BME280;4909;42.680;26.324;2023-01-23T06:01:20;99673.63;;;9.69;100.00
9740;BME280;4909;42.680;26.324;2023-01-23T06:03:48;99668.50;;;9.61;100.00
9740;BME280;4909;42.680;26.324;2023-01-23T06:06:15;99671.72;;;9.74;100.00
9740;BME280;4909;42.680;26.324;2023-01-23T06:08:42;99683.09;;;9.79;100.00
9740;BME280;4909;42.680;26.324;2023-01-23T06:11:09;99655.34;;;9.58;100.00
9740;BME280;4909;42.680;26.324;2023-01-23T06:13:35;99690.47;;;9.66;100.00
9740;BME280;4909;42.680;26.324;2023-01-23T06:16:02;99682.63;;;9.62;100.00
9740;BME280;4909;42.680;26.324;2023-01-23T06:18:29;99683.78;;;9.50;100.00
9740;BME280;4909;42.680;26.324;2023-01-23T06:20:58;99682.03;;;9.49;100.00
9740;BME280;4909;42.680;26.324;2023-01-23T06:23:25;99670.75;;;9.41;100.00
9740;BME280;4909;42.680;26.324;2023-01-23T06:25:52;99693.16;;;9.65;100.00
9740;BME280;4909;42.680;26.324;2023-01-23T06:28:19;99697.78;;;9.56;100.00
9740;BME280;4909;42.680;26.324;2023-01-23T06:30:46;99684.78;;;9.46;100.00
9740;BME280;4909;42.680;26.324;2023-01-23T06:33:12;99689.81;;;9.56;100.00
9740;BME280;4909;42.680;26.324;2023-01-23T06:35:39;99695.09;;;9.58;100.00
9740;BME280;4909;42.680;26.324;2023-01-23T06:38:07;99689.88;;;9.15;100.00
9740;BME280;4909;42.680;26.324;2023-01-23T06:40:34;99701.00;;;9.31;100.00
9740;BME280;4909;42.680;26.324;2023-01-23T06:43:01;99701.75;;;9.37;100.00
9740;BME280;4909;42.680;26.324;2023-01-23T06:45:28;99717.91;;;9.25;100.00
9740;BME280;4909;42.680;26.324;2023-01-23T06:47:55;99710.06;;;9.21;100.00
9740;BME280;4909;42.680;26.324;2023-01-23T06:50:21;99718.75;;;9.29;100.00
9740;BME280;4909;42.680;26.324;2023-01-23T06:52:48;99720.63;;;9.24;100.00
9740;BME280;4909;42.680;26.324;2023-01-23T06:55:16;99713.72;;;9.15;100.00
9740;BME280;4909;42.680;26.324;2023-01-23T06:57:44;99701.44;;;9.12;100.00
9740;BME280;4909;42.680;26.324;2023-01-23T07:00:12;99717.88;;;9.28;100.00
9740;BME280;4909;42.680;26.324;2023-01-23T07:02:39;99725.19;;;9.15;100.00
9740;BME280;4909;42.680;26.324;2023-01-23T07:05:06;99728.47;;;9.28;100.00
9740;BME280;4909;42.680;26.324;2023-01-23T07:07:33;99720.50;;;9.28;100.00
9740;BME280;4909;42.680;26.324;2023-01-23T07:10:00;99723.50;;;9.11;100.00
9740;BME280;4909;42.680;26.324;2023-01-23T07:12:28;99727.81;;;9.17;100.00
9740;BME280;4909;42.680;26.324;2023-01-23T07:14:54;99705.88;;;9.10;100.00
9740;BME280;4909;42.680;26.324;2023-01-23T07:17:21;99720.84;;;9.13;100.00
9740;BME280;4909;42.680;26.324;2023-01-23T07:19:48;99728.00;;;9.09;100.00
9740;BME280;4909;42.680;26.324;2023-01-23T07:22:16;99737.81;;;9.04;100.00
9740;BME280;4909;42.680;26.324;2023-01-23T07:24:43;99740.31;;;9.10;100.00
9740;BME280;4909;42.680;26.324;2023-01-23T07:27:10;99679.97;;;8.85;100.00
9740;BME280;4909;42.680;26.324;2023-01-23T07:29:38;99732.41;;;9.09;100.00
9740;BME280;4909;42.680;26.324;2023-01-23T07:32:05;99737.75;;;9.06;100.00
9740;BME280;4909;42.680;26.324;2023-01-23T07:34:32;99729.72;;;9.10;100.00
9740;BME280;4909;42.680;26.324;2023-01-23T07:36:59;99733.09;;;9.19;100.00
9740;BME280;4909;42.680;26.324;2023-01-23T07:39:25;99740.28;;;9.12;100.00
9740;BME280;4909;42.680;26.324;2023-01-23T07:41:53;99718.94;;;8.77;100.00
9740;BME280;4909;42.680;26.324;2023-01-23T07:44:21;99732.63;;;8.98;100.00
9740;BME280;4909;42.680;26.324;2023-01-23T07:46:49;99725.75;;;8.90;100.00
9740;BME280;4909;42.680;26.324;2023-01-23T07:49:16;99743.69;;;9.19;100.00
9740;BME280;4909;42.680;26.324;2023-01-23T07:51:43;99738.38;;;9.19;100.00
9740;BME280;4909;42.680;26.324;2023-01-23T07:54:10;99744.31;;;9.30;100.00
9740;BME280;4909;42.680;26.324;2023-01-23T07:56:37;99741.44;;;9.40;100.00
9740;BME280;4909;42.680;26.324;2023-01-23T07:59:04;99748.28;;;9.49;100.00
9740;BME280;4909;42.680;26.324;2023-01-23T08:01:30;99752.84;;;9.44;100.00
9740;BME280;4909;42.680;26.324;2023-01-23T08:03:59;99765.91;;;9.51;100.00
9740;BME280;4909;42.680;26.324;2023-01-23T08:06:25;99760.72;;;9.47;100.00
9740;BME280;4909;42.680;26.324;2023-01-23T08:08:52;99756.84;;;9.63;100.00
9740;BME280;4909;42.680;26.324;2023-01-23T08:11:19;99762.78;;;9.73;99.94
9740;BME280;4909;42.680;26.324;2023-01-23T08:13:48;99757.06;;;9.91;98.81
9740;BME280;4909;42.680;26.324;2023-01-23T08:16:15;99770.41;;;9.86;97.80
9740;BME280;4909;42.680;26.324;2023-01-23T08:18:43;99766.13;;;9.81;97.42
9740;BME280;4909;42.680;26.324;2023-01-23T08:21:11;99770.25;;;9.55;98.64
9740;BME280;4909;42.680;26.324;2023-01-23T08:23:38;99766.78;;;9.52;98.39
9740;BME280;4909;42.680;26.324;2023-01-23T08:26:07;99742.72;;;9.63;98.59
9740;BME280;4909;42.680;26.324;2023-01-23T08:28:35;99770.16;;;9.97;97.46
9740;BME280;4909;42.680;26.324;2023-01-23T08:31:03;99778.66;;;10.11;95.80
9740;BME280;4909;42.680;26.324;2023-01-23T08:33:30;99774.22;;;10.12;95.26
9740;BME280;4909;42.680;26.324;2023-01-23T08:35:57;99774.03;;;10.21;94.33
9740;BME280;4909;42.680;26.324;2023-01-23T08:38:26;99770.13;;;9.98;94.05
9740;BME280;4909;42.680;26.324;2023-01-23T08:40:53;99758.81;;;9.92;93.83
9740;BME280;4909;42.680;26.324;2023-01-23T08:43:20;99771.69;;;9.69;94.60
9740;BME280;4909;42.680;26.324;2023-01-23T08:45:49;99774.09;;;9.81;94.08
9740;BME280;4909;42.680;26.324;2023-01-23T08:48:16;99773.22;;;9.79;94.80
9740;BME280;4909;42.680;26.324;2023-01-23T08:50:43;99772.00;;;9.93;93.39
9740;BME280;4909;42.680;26.324;2023-01-23T08:53:10;99771.72;;;10.06;93.51
9740;BME280;4909;42.680;26.324;2023-01-23T08:55:39;99779.47;;;10.13;93.71
9740;BME280;4909;42.680;26.324;2023-01-23T08:58:07;99780.34;;;10.14;93.52
9740;BME280;4909;42.680;26.324;2023-01-23T09:00:37;99778.03;;;10.01;94.50
9740;BME280;4909;42.680;26.324;2023-01-23T09:03:05;99778.03;;;10.01;95.69
9740;BME280;4909;42.680;26.324;2023-01-23T09:05:32;99772.50;;;10.09;94.91
9740;BME280;4909;42.680;26.324;2023-01-23T09:07:58;99776.81;;;10.13;94.57
9740;BME280;4909;42.680;26.324;2023-01-23T09:10:25;99765.13;;;9.86;94.00
9740;BME280;4909;42.680;26.324;2023-01-23T09:12:54;99778.41;;;9.85;95.17
9740;BME280;4909;42.680;26.324;2023-01-23T09:15:22;99779.41;;;9.79;96.13
9740;BME280;4909;42.680;26.324;2023-01-23T09:17:49;99778.47;;;9.82;96.01
9740;BME280;4909;42.680;26.324;2023-01-23T09:20:16;99769.44;;;9.90;94.94
9740;BME280;4909;42.680;26.324;2023-01-23T09:22:45;99765.91;;;9.90;94.44
9740;BME280;4909;42.680;26.324;2023-01-23T09:25:12;99767.94;;;9.79;93.36
9740;BME280;4909;42.680;26.324;2023-01-23T09:27:39;99763.00;;;10.00;93.88
9740;BME280;4909;42.680;26.324;2023-01-23T09:30:09;99763.88;;;10.01;94.10
9740;BME280;4909;42.680;26.324;2023-01-23T09:32:36;99763.38;;;9.84;93.58
9740;BME280;4909;42.680;26.324;2023-01-23T09:35:03;99766.00;;;9.87;93.27
9740;BME280;4909;42.680;26.324;2023-01-23T09:37:31;99767.97;;;10.16;92.22
9740;BME280;4909;42.680;26.324;2023-01-23T09:40:22;99769.19;;;10.36;91.56
9740;BME280;4909;42.680;26.324;2023-01-23T09:42:50;99771.78;;;10.39;91.33
9740;BME280;4909;42.680;26.324;2023-01-23T09:45:21;99775.84;;;10.19;90.61
9740;BME280;4909;42.680;26.324;2023-01-23T09:47:53;99764.09;;;10.29;92.32
9740;BME280;4909;42.680;26.324;2023-01-23T09:50:25;99768.13;;;10.43;91.88
9740;BME280;4909;42.680;26.324;2023-01-23T09:52:58;99765.50;;;10.42;90.98
9740;BME280;4909;42.680;26.324;2023-01-23T09:55:34;99725.03;;;10.34;90.47
9740;BME280;4909;42.680;26.324;2023-01-23T09:58:12;99747.63;;;10.50;89.52
9740;BME280;4909;42.680;26.324;2023-01-23T10:00:42;99753.06;;;10.45;89.88
9740;BME280;4909;42.680;26.324;2023-01-23T10:03:11;99753.63;;;10.23;90.56
9740;BME280;4909;42.680;26.324;2023-01-23T10:05:50;99751.41;;;10.04;91.71
9740;BME280;4909;42.680;26.324;2023-01-23T10:08:28;99755.50;;;9.82;91.79
9740;BME280;4909;42.680;26.324;2023-01-23T10:10:59;99754.44;;;9.89;91.03
9740;BME280;4909;42.680;26.324;2023-01-23T10:13:42;99729.47;;;9.61;92.29
9740;BME280;4909;42.680;26.324;2023-01-23T10:16:32;99742.91;;;9.53;93.25
9740;BME280;4909;42.680;26.324;2023-01-23T10:19:13;99745.94;;;9.75;92.40
9740;BME280;4909;42.680;26.324;2023-01-23T10:21:49;99747.31;;;9.91;92.33
9740;BME280;4909;42.680;26.324;2023-01-23T10:24:33;99738.31;;;9.62;92.74
9740;BME280;4909;42.680;26.324;2023-01-23T10:27:14;99731.50;;;9.50;92.91
9740;BME280;4909;42.680;26.324;2023-01-23T10:29:46;99732.44;;;9.84;91.67
9740;BME280;4909;42.680;26.324;2023-01-23T10:32:22;99741.16;;;9.89;90.26
9740;BME280;4909;42.680;26.324;2023-01-23T10:34:54;99719.66;;;10.01;90.92
9740;BME280;4909;42.680;26.324;2023-01-23T10:37:39;99729.41;;;10.01;91.45
9740;BME280;4909;42.680;26.324;2023-01-23T10:40:12;99738.06;;;9.72;90.70
9740;BME280;4909;42.680;26.324;2023-01-23T10:42:39;99710.25;;;9.53;92.28
9740;BME280;4909;42.680;26.324;2023-01-23T10:45:14;99727.41;;;9.74;92.15
9740;BME280;4909;42.680;26.324;2023-01-23T10:47:46;99733.44;;;9.42;90.89
9740;BME280;4909;42.680;26.324;2023-01-23T10:50:14;99695.13;;;9.56;91.35
9740;BME280;4909;42.680;26.324;2023-01-23T10:52:42;99726.78;;;9.99;90.29
9740;BME280;4909;42.680;26.324;2023-01-23T10:55:27;99735.63;;;9.63;90.78
9740;BME280;4909;42.680;26.324;2023-01-23T10:57:56;99726.53;;;9.35;91.49
9740;BME280;4909;42.680;26.324;2023-01-23T11:00:26;99728.81;;;9.51;90.84
9740;BME280;4909;42.680;26.324;2023-01-23T11:03:18;99732.53;;;9.81;91.16
9740;BME280;4909;42.680;26.324;2023-01-23T11:05:51;99730.31;;;10.00;89.90
9740;BME280;4909;42.680;26.324;2023-01-23T11:08:24;99726.00;;;9.94;90.02
9740;BME280;4909;42.680;26.324;2023-01-23T11:10:52;99725.16;;;9.92;90.76
9740;BME280;4909;42.680;26.324;2023-01-23T11:13:26;99724.59;;;9.81;90.81
9740;BME280;4909;42.680;26.324;2023-01-23T11:15:53;99741.38;;;9.80;90.83
9740;BME280;4909;42.680;26.324;2023-01-23T11:18:30;99676.47;;;9.23;90.87
9740;BME280;4909;42.680;26.324;2023-01-23T11:20:57;99734.00;;;9.16;92.93
9740;BME280;4909;42.680;26.324;2023-01-23T11:23:24;99740.75;;;9.31;91.81
9740;BME280;4909;42.680;26.324;2023-01-23T11:25:53;99733.34;;;9.46;91.13
9740;BME280;4909;42.680;26.324;2023-01-23T11:28:22;99726.69;;;9.67;90.42
9740;BME280;4909;42.680;26.324;2023-01-23T11:30:54;99720.19;;;9.42;91.40
9740;BME280;4909;42.680;26.324;2023-01-23T11:33:35;99727.69;;;9.23;92.93
9740;BME280;4909;42.680;26.324;2023-01-23T11:36:17;99721.31;;;9.32;92.71
9740;BME280;4909;42.680;26.324;2023-01-23T11:38:49;99722.88;;;9.40;92.35
9740;BME280;4909;42.680;26.324;2023-01-23T11:41:17;99711.69;;;9.28;90.58
9740;BME280;4909;42.680;26.324;2023-01-23T11:43:44;99717.56;;;9.40;90.84
9740;BME280;4909;42.680;26.324;2023-01-23T11:46:28;99722.84;;;9.42;90.56
9740;BME280;4909;42.680;26.324;2023-01-23T11:49:22;99723.72;;;9.44;90.67
9740;BME280;4909;42.680;26.324;2023-01-23T11:52:02;99728.34;;;9.34;90.19
9740;BME280;4909;42.680;26.324;2023-01-23T11:54:53;99728.25;;;9.37;91.01
9740;BME280;4909;42.680;26.324;2023-01-23T11:57:35;99728.47;;;9.28;91.81
9740;BME280;4909;42.680;26.324;2023-01-23T12:00:23;99733.63;;;9.34;91.38
9740;BME280;4909;42.680;26.324;2023-01-23T12:03:17;99737.22;;;9.30;92.00
9740;BME280;4909;42.680;26.324;2023-01-23T12:06:02;99735.53;;;9.28;90.80
9740;BME280;4909;42.680;26.324;2023-01-23T12:08:39;99748.81;;;9.25;89.68
9740;BME280;4909;42.680;26.324;2023-01-23T12:11:12;99754.31;;;9.15;91.03
9740;BME280;4909;42.680;26.324;2023-01-23T12:13:56;99749.13;;;9.11;90.77
9740;BME280;4909;42.680;26.324;2023-01-23T12:16:56;99748.44;;;9.01;91.90
9740;BME280;4909;42.680;26.324;2023-01-23T12:22:23;99751.41;;;8.86;92.83
9740;BME280;4909;42.680;26.324;2023-01-23T12:25:03;99754.22;;;8.77;93.03
9740;BME280;4909;42.680;26.324;2023-01-23T12:27:40;99754.22;;;8.77;93.13
9740;BME280;4909;42.680;26.324;2023-01-23T12:33:16;99767.03;;;8.54;94.80
9740;BME280;4909;42.680;26.324;2023-01-23T12:35:58;99753.59;;;8.66;94.70
9740;BME280;4909;42.680;26.324;2023-01-23T12:38:30;99726.53;;;8.49;94.20
9740;BME280;4909;42.680;26.324;2023-01-23T12:41:08;99759.38;;;8.39;95.45
9740;BME280;4909;42.680;26.324;2023-01-23T12:43:44;99753.25;;;8.35;96.36
9740;BME280;4909;42.680;26.324;2023-01-23T12:46:17;99757.03;;;8.19;97.13
9740;BME280;4909;42.680;26.324;2023-01-23T12:48:48;99759.53;;;8.29;97.83
9740;BME280;4909;42.680;26.324;2023-01-23T12:51:21;99764.56;;;8.45;96.78
9740;BME280;4909;42.680;26.324;2023-01-23T12:53:52;99775.84;;;8.54;95.56
9740;BME280;4909;42.680;26.324;2023-01-23T12:56:24;99761.81;;;8.51;94.99
9740;BME280;4909;42.680;26.324;2023-01-23T12:58:57;99768.25;;;8.36;95.81
9740;BME280;4909;42.680;26.324;2023-01-23T13:01:49;99772.56;;;8.42;95.98
9740;BME280;4909;42.680;26.324;2023-01-23T13:04:28;99772.66;;;8.36;94.74
9740;BME280;4909;42.680;26.324;2023-01-23T13:07:10;99776.09;;;8.39;94.73
9740;BME280;4909;42.680;26.324;2023-01-23T13:09:53;99772.09;;;8.15;94.46
9740;BME280;4909;42.680;26.324;2023-01-23T13:12:27;99766.97;;;8.05;95.74
9740;BME280;4909;42.680;26.324;2023-01-23T13:15:19;99783.53;;;8.16;95.54
9740;BME280;4909;42.680;26.324;2023-01-23T13:17:49;99769.28;;;8.24;95.36
9740;BME280;4909;42.680;26.324;2023-01-23T13:20:23;99782.19;;;8.46;93.45
9740;BME280;4909;42.680;26.324;2023-01-23T13:23:28;99787.75;;;8.27;94.08
9740;BME280;4909;42.680;26.324;2023-01-23T13:26:24;99789.50;;;8.30;94.67
9740;BME280;4909;42.680;26.324;2023-01-23T13:28:54;99759.88;;;8.08;94.06
9740;BME280;4909;42.680;26.324;2023-01-23T13:31:42;99791.31;;;8.25;95.01
9740;BME280;4909;42.680;26.324;2023-01-23T13:34:35;99790.06;;;8.49;93.97
9740;BME280;4909;42.680;26.324;2023-01-23T13:40:18;99796.53;;;8.33;94.06
9740;BME280;4909;42.680;26.324;2023-01-23T13:42:47;99802.19;;;8.07;94.43
9740;BME280;4909;42.680;26.324;2023-01-23T13:45:29;99783.56;;;8.14;95.28